Time;durP1;ratioP1;P1;durP2;ratioP2;P2;SDS_P1;SDS_P2;PMS_P1;PMS_P2;Temp;Humidity;BMP_temperature;BMP_pressure;BME280_temperature;BME280_humidity;BME280_pressure;Samples;Min_cycle;Max_cycle;Signal;HPM_P1;HPM_P2
2022/04/16 00:01:49;;;;;;;22.57;16.80;;;;;;;-145.18;100.00;46588.13;5072785;28;20040;-75
2022/04/16 00:04:14;;;;;;;21.20;16.63;;;;;;;-145.18;100.00;46629.13;5073120;28;20440;-75
2022/04/16 00:06:40;;;;;;;26.57;18.07;;;;;;;-145.18;100.00;46578.34;5054899;28;20352;-76
2022/04/16 00:09:05;;;;;;;24.30;16.57;;;;;;;-145.18;100.00;46572.50;5041494;28;20431;-75
2022/04/16 00:11:31;;;;;;;19.90;16.53;;;;;;;-145.18;100.00;46574.44;5032770;28;20037;-75
2022/04/16 00:13:56;;;;;;;19.43;16.17;;;;;;;-145.18;100.00;46568.59;5013903;28;20053;-75
2022/04/16 00:16:22;;;;;;;19.40;15.73;;;;;;;-145.18;100.00;46570.53;5032703;28;20063;-74
2022/04/16 00:18:48;;;;;;;22.27;16.53;;;;;;;-145.18;100.00;46572.50;5033292;28;20080;-75
2022/04/16 00:21:13;;;;;;;22.00;15.93;;;;;;;-145.18;100.00;46566.63;5032634;28;20029;-75
2022/04/16 00:23:41;;;;;;;22.67;16.60;;;;;;;-145.18;100.00;46574.44;5031904;28;20277;-74
2022/04/16 00:26:07;;;;;;;21.43;16.80;;;;;;;-145.18;100.00;46576.41;5032920;28;20104;-75
2022/04/16 00:28:35;;;;;;;24.63;16.37;;;;;;;-145.18;100.00;46635.00;5033043;28;20273;-74
2022/04/16 00:31:01;;;;;;;23.87;17.83;;;;;;;-145.18;100.00;46635.00;5033033;28;20377;-74
2022/04/16 00:33:26;;;;;;;22.93;17.33;;;;;;;-145.18;100.00;46656.50;5032804;28;20350;-75
2022/04/16 00:35:52;;;;;;;28.67;17.93;;;;;;;-145.18;100.00;46660.41;5033064;28;20878;-74
2022/04/16 00:38:18;;;;;;;24.30;16.60;;;;;;;-145.18;100.00;46660.41;5014443;28;20120;-75
2022/04/16 00:40:43;;;;;;;24.13;17.80;;;;;;;-145.18;100.00;46646.72;5032671;28;20045;-75
2022/04/16 00:43:20;;;;;;;25.97;17.90;;;;;;;-145.18;100.00;46660.41;5032689;28;20067;-74
2022/04/16 00:45:47;;;;;;;28.37;18.33;;;;;;;-145.18;100.00;46668.22;5032562;28;20069;-74
2022/04/16 00:48:13;;;;;;;25.50;18.47;;;;;;;-145.18;100.00;46672.13;5032403;28;20329;-75
2022/04/16 00:50:39;;;;;;;23.50;17.30;;;;;;;-145.18;100.00;46672.13;5032575;28;20275;-74
2022/04/16 00:53:05;;;;;;;27.33;18.57;;;;;;;-145.18;100.00;46691.66;5032324;28;20052;-74
2022/04/16 00:55:35;;;;;;;27.37;19.17;;;;;;;-145.18;100.00;46685.78;5031517;28;20294;-75
2022/04/16 00:58:01;;;;;;;28.10;18.47;;;;;;;-145.18;100.00;46683.84;5031935;28;20274;-75
2022/04/16 01:00:26;;;;;;;32.03;20.03;;;;;;;-145.18;100.00;46677.97;5032475;28;20267;-74
2022/04/16 01:02:52;;;;;;;26.80;18.13;;;;;;;-145.18;100.00;46683.84;5014168;28;20049;-74
2022/04/16 01:05:19;;;;;;;31.03;19.83;;;;;;;-145.18;100.00;46681.88;5032006;28;20053;-74
2022/04/16 01:07:56;;;;;;;26.67;17.67;;;;;;;-145.18;100.00;46679.94;5031897;28;20453;-74
2022/04/16 01:10:26;;;;;;;25.73;17.50;;;;;;;-145.18;100.00;46687.75;5032339;28;20273;-74
2022/04/16 01:12:52;;;;;;;25.43;18.10;;;;;;;-145.18;100.00;46683.84;5031754;28;20273;-74
2022/04/16 01:15:20;;;;;;;24.87;17.10;;;;;;;-145.18;100.00;46689.69;5032166;28;20445;-74
2022/04/16 01:17:47;;;;;;;27.23;17.57;;;;;;;-145.18;100.00;46687.75;5031519;28;20262;-75
2022/04/16 01:20:13;;;;;;;23.03;17.27;;;;;;;-145.18;100.00;46693.59;5031875;28;20839;-74
2022/04/16 01:22:39;;;;;;;24.63;17.03;;;;;;;-145.18;100.00;46687.75;5031355;28;20266;-74
2022/04/16 01:25:07;;;;;;;24.60;16.70;;;;;;;-145.18;100.00;46689.69;5031908;28;20100;-74
2022/04/16 01:27:35;;;;;;;25.73;17.00;;;;;;;-145.18;100.00;46687.75;5031441;28;20798;-74
2022/04/16 01:30:03;;;;;;;22.83;16.37;;;;;;;-145.18;100.00;46689.69;5031512;28;20740;-74
2022/04/16 01:32:28;;;;;;;23.67;17.03;;;;;;;-145.18;100.00;46691.66;5029820;28;20278;-74
2022/04/16 01:34:54;;;;;;;21.90;16.33;;;;;;;-145.18;100.00;46687.75;5031690;28;20294;-74
2022/04/16 01:37:19;;;;;;;23.67;16.47;;;;;;;-145.18;100.00;46687.75;5031486;28;20107;-74
2022/04/16 01:39:45;;;;;;;24.50;17.07;;;;;;;-145.18;100.00;46693.59;5030244;28;20029;-75
2022/04/16 01:42:11;;;;;;;28.70;16.67;;;;;;;-145.18;100.00;46691.66;5031610;28;20030;-75
2022/04/16 01:44:36;;;;;;;25.10;16.97;;;;;;;-145.18;100.00;46689.69;5030966;28;20048;-74
2022/04/16 01:47:01;;;;;;;23.30;16.87;;;;;;;-145.18;100.00;46685.78;5030761;28;20035;-74
2022/04/16 01:49:27;;;;;;;22.63;17.23;;;;;;;-145.18;100.00;46687.75;5031416;28;20382;-75
2022/04/16 01:51:54;;;;;;;25.43;18.20;;;;;;;-145.18;100.00;46685.78;5029727;28;20042;-74
2022/04/16 01:54:20;;;;;;;26.20;17.13;;;;;;;-145.18;100.00;46685.78;5031077;28;20037;-75
2022/04/16 01:56:45;;;;;;;23.47;17.80;;;;;;;-145.18;100.00;46683.84;5030572;28;20274;-74
2022/04/16 01:59:11;;;;;;;25.00;18.40;;;;;;;-145.18;100.00;46676.03;5031553;28;20061;-74
2022/04/16 02:01:36;;;;;;;32.80;18.00;;;;;;;-145.18;100.00;46683.84;5265135;22;20135;-76
2022/04/16 02:04:02;;;;;;;25.93;17.70;;;;;;;-145.18;100.00;46677.97;4994973;28;20680;-76
2022/04/16 02:06:28;;;;;;;23.90;17.40;;;;;;;-145.18;100.00;46676.03;5026208;28;20116;-76
2022/04/16 02:08:53;;;;;;;27.97;17.83;;;;;;;-145.18;100.00;46677.97;5030779;28;20408;-76
2022/04/16 02:11:19;;;;;;;30.53;18.27;;;;;;;-145.18;100.00;46683.84;5031124;28;20116;-76
2022/04/16 02:13:44;;;;;;;26.90;18.70;;;;;;;-145.18;100.00;46676.03;5030335;28;20044;-76
2022/04/16 02:16:10;;;;;;;27.87;18.60;;;;;;;-145.18;100.00;46676.03;5031034;28;20030;-75
2022/04/16 02:18:36;;;;;;;29.23;18.47;;;;;;;-145.18;100.00;46677.97;5030354;28;20029;-76
2022/04/16 02:21:01;;;;;;;26.43;18.73;;;;;;;-145.18;100.00;46666.25;5030985;28;20036;-75
2022/04/16 02:23:26;;;;;;;27.77;18.20;;;;;;;-145.18;100.00;46672.13;5030530;28;20266;-76
2022/04/16 02:25:53;;;;;;;28.50;19.37;;;;;;;-145.18;100.00;46674.06;5030852;28;20052;-75
2022/04/16 02:28:21;;;;;;;31.23;19.40;;;;;;;-145.18;100.00;46668.22;5030587;28;20159;-76
2022/04/16 02:30:47;;;;;;;23.17;17.87;;;;;;;-145.18;100.00;46670.16;5030257;28;20275;-76
2022/04/16 02:33:12;;;;;;;28.90;19.10;;;;;;;-145.18;100.00;46679.94;5029136;28;20316;-76
2022/04/16 02:35:38;;;;;;;27.90;19.00;;;;;;;-145.18;100.00;46668.22;5030573;28;20030;-76
2022/04/16 02:38:04;;;;;;;26.17;19.03;;;;;;;-145.18;100.00;46672.13;5029716;28;20033;-76
2022/04/16 02:40:30;;;;;;;26.17;18.23;;;;;;;-145.18;100.00;46677.97;5030495;28;20259;-76
2022/04/16 02:42:55;;;;;;;32.90;18.80;;;;;;;-145.18;100.00;46672.13;5030208;28;20083;-76
2022/04/16 02:48:04;;;;;;;29.97;18.97;;;;;;;-145.18;100.00;46679.94;5030466;28;20118;-76
2022/04/16 02:50:31;;;;;;;25.20;17.70;;;;;;;-145.18;100.00;46676.03;5030486;28;20329;-76
2022/04/16 02:52:58;;;;;;;28.60;18.30;;;;;;;-145.18;100.00;46676.03;5030161;28;20110;-76
2022/04/16 02:55:24;;;;;;;35.33;21.10;;;;;;;-145.18;100.00;46672.13;5030347;28;20774;-76
2022/04/16 02:57:50;;;;;;;30.30;20.37;;;;;;;-145.18;100.00;46664.31;5029790;28;20275;-76
2022/04/16 03:00:16;;;;;;;28.20;19.23;;;;;;;-145.18;100.00;46666.25;5030479;28;20033;-77
2022/04/16 03:02:42;;;;;;;29.43;20.23;;;;;;;-145.18;100.00;46668.22;5029581;28;20305;-76
2022/04/16 03:05:08;;;;;;;28.63;18.93;;;;;;;-145.18;100.00;46670.16;5030500;28;20751;-76
2022/04/16 03:07:35;;;;;;;33.50;20.57;;;;;;;-145.18;100.00;46672.13;5029597;28;20051;-76
2022/04/16 03:10:02;;;;;;;30.97;20.77;;;;;;;-145.18;100.00;46664.31;5030339;28;20263;-77
2022/04/16 03:12:28;;;;;;;32.77;20.87;;;;;;;-145.18;100.00;46668.22;5029964;28;20337;-76
2022/04/16 03:17:38;;;;;;;31.67;20.50;;;;;;;-145.18;100.00;46668.22;5029811;28;20769;-77
2022/04/16 03:20:05;;;;;;;28.97;20.43;;;;;;;-145.18;100.00;46664.31;5030407;28;20259;-76
2022/04/16 03:22:33;;;;;;;33.37;20.90;;;;;;;-145.18;100.00;46662.34;5029441;28;20072;-76
2022/04/16 03:24:59;;;;;;;31.03;19.73;;;;;;;-145.18;100.00;46660.41;5030414;28;20282;-76
2022/04/16 03:27:24;;;;;;;32.13;21.40;;;;;;;-145.18;100.00;46660.41;5029747;28;20769;-77
2022/04/16 03:29:49;;;;;;;34.30;21.20;;;;;;;-145.18;100.00;46658.44;5030116;28;20287;-76
2022/04/16 03:32:15;;;;;;;32.67;21.07;;;;;;;-145.18;100.00;46664.31;5029940;28;20057;-76
2022/04/16 03:34:40;;;;;;;34.93;21.37;;;;;;;-145.18;100.00;46662.34;5029963;28;20036;-76
2022/04/16 03:37:06;;;;;;;33.07;21.23;;;;;;;-145.18;100.00;46654.53;5029362;28;20037;-76
2022/04/16 03:39:32;;;;;;;35.20;21.43;;;;;;;-145.18;100.00;46658.44;5030096;28;20496;-76
2022/04/16 03:41:57;;;;;;;33.83;20.70;;;;;;;-145.18;100.00;46658.44;5029893;28;20038;-76
2022/04/16 03:44:22;;;;;;;35.50;21.67;;;;;;;-145.18;100.00;46658.44;5030289;28;20037;-77
2022/04/16 03:46:48;;;;;;;35.07;21.83;;;;;;;-145.18;100.00;46654.53;5029148;28;20494;-77
2022/04/16 03:49:14;;;;;;;35.70;21.37;;;;;;;-145.18;100.00;46656.50;5033008;28;20065;-76
2022/04/16 03:51:39;;;;;;;38.87;22.20;;;;;;;-145.18;100.00;46654.53;5029092;28;20048;-77
2022/04/16 04:02:21;;;;;;;37.93;22.50;;;;;;;-145.18;100.00;46650.63;5028693;28;20345;-76
2022/04/16 04:04:46;;;;;;;34.27;23.17;;;;;;;-145.18;100.00;46650.63;5031931;28;20271;-76
2022/04/16 04:07:12;;;;;;;36.83;23.70;;;;;;;-145.18;100.00;46652.59;5032557;28;20477;-77
2022/04/16 04:09:41;;;;;;;40.40;22.57;;;;;;;-145.18;100.00;46654.53;5032949;28;20033;-77
2022/04/16 04:12:10;;;;;;;33.20;22.40;;;;;;;-145.18;100.00;46656.50;5031889;28;20037;-76
2022/04/16 04:14:39;;;;;;;38.47;23.77;;;;;;;-145.18;100.00;46656.50;5030838;28;20797;-77
2022/04/16 04:17:07;;;;;;;38.17;23.10;;;;;;;-145.18;100.00;46656.50;5032523;28;20279;-76
2022/04/16 04:19:34;;;;;;;37.90;22.47;;;;;;;-145.18;100.00;46658.44;5032653;28;20275;-75
2022/04/16 04:21:59;;;;;;;40.30;25.00;;;;;;;-145.18;100.00;46650.63;5032982;28;20267;-76
2022/04/16 04:24:24;;;;;;;39.00;23.50;;;;;;;-145.18;100.00;46652.59;5029855;28;20761;-76
2022/04/16 04:26:55;;;;;;;43.57;24.27;;;;;;;-145.18;100.00;46652.59;5029396;28;20059;-77
2022/04/16 04:29:20;;;;;;;37.67;24.20;;;;;;;-145.18;100.00;46650.63;5033090;28;20032;-77
2022/04/16 04:31:45;;;;;;;43.43;25.07;;;;;;;-145.18;100.00;46652.59;5032454;28;20702;-76
2022/04/16 04:34:11;;;;;;;39.37;24.33;;;;;;;-145.18;100.00;46650.63;5031362;28;20084;-77
2022/04/16 04:36:36;;;;;;;38.33;24.50;;;;;;;-145.18;100.00;46652.59;5029811;28;20034;-76
2022/04/16 04:39:01;;;;;;;45.53;26.03;;;;;;;-145.18;100.00;46646.72;5032722;28;20033;-76
2022/04/16 04:41:27;;;;;;;46.43;25.87;;;;;;;-145.18;100.00;46648.69;5032885;28;20481;-76
2022/04/16 04:43:52;;;;;;;42.73;26.13;;;;;;;-145.18;100.00;46650.63;5032136;28;20041;-77
2022/04/16 04:46:17;;;;;;;45.00;25.73;;;;;;;-145.18;100.00;46650.63;5018550;28;20036;-77
2022/04/16 04:48:43;;;;;;;42.13;26.53;;;;;;;-145.18;100.00;46650.63;5026540;28;20034;-77
2022/04/16 04:51:08;;;;;;;41.60;26.83;;;;;;;-145.18;100.00;46644.78;5032157;28;20039;-77
2022/04/16 04:53:33;;;;;;;43.23;26.03;;;;;;;-145.18;100.00;46648.69;5007363;28;20136;-77
2022/04/16 04:55:59;;;;;;;46.37;25.83;;;;;;;-145.18;100.00;46646.72;5030020;28;20041;-76
2022/04/16 04:58:24;;;;;;;41.30;25.47;;;;;;;-145.18;100.00;46642.81;5012346;28;20142;-76
2022/04/16 05:00:49;;;;;;;46.13;26.63;;;;;;;-145.18;100.00;46644.78;5011977;28;20065;-76
2022/04/16 05:03:15;;;;;;;47.80;27.30;;;;;;;-145.18;100.00;46642.81;5012461;28;20053;-77
2022/04/16 05:05:40;;;;;;;43.07;25.03;;;;;;;-145.18;100.00;46644.78;5012650;28;20122;-77
2022/04/16 05:08:05;;;;;;;50.23;28.03;;;;;;;-145.18;100.00;46644.78;5012262;28;20069;-77
2022/04/16 05:10:31;;;;;;;47.30;27.03;;;;;;;-145.18;100.00;46646.72;5012519;28;20038;-77
2022/04/16 05:12:57;;;;;;;40.53;25.67;;;;;;;-145.18;100.00;46646.72;4994349;28;20038;-78
2022/04/16 05:15:23;;;;;;;45.30;28.10;;;;;;;-145.18;100.00;46646.72;5012430;28;20041;-77
2022/04/16 05:17:48;;;;;;;48.67;27.80;;;;;;;-145.18;100.00;46642.81;5011718;28;20275;-77
2022/04/16 05:20:13;;;;;;;44.77;26.80;;;;;;;-145.18;100.00;46640.88;5010235;28;20128;-77
2022/04/16 05:22:39;;;;;;;44.40;27.93;;;;;;;-145.18;100.00;46646.72;5031288;28;20095;-76
2022/04/16 05:25:05;;;;;;;43.73;25.67;;;;;;;-145.18;100.00;46644.78;5032184;28;20065;-77
2022/04/16 05:27:30;;;;;;;46.23;25.43;;;;;;;-145.18;100.00;46640.88;5031955;28;20041;-78
2022/04/16 05:30:02;;;;;;;44.40;25.63;;;;;;;-145.18;100.00;46640.88;5025413;28;20276;-77
2022/04/16 05:32:36;;;;;;;45.43;26.40;;;;;;;-145.18;100.00;46646.72;5027224;28;20042;-77
2022/04/16 05:35:05;;;;;;;46.67;25.70;;;;;;;-145.18;100.00;46642.81;5029771;28;20305;-77
2022/04/16 05:37:31;;;;;;;53.07;28.00;;;;;;;-145.18;100.00;46642.81;5030181;28;20259;-78
2022/04/16 05:39:56;;;;;;;44.17;27.37;;;;;;;-145.18;100.00;46642.81;5031537;28;20273;-78
2022/04/16 05:42:22;;;;;;;45.53;28.40;;;;;;;-145.18;100.00;46642.81;5031147;28;20514;-78
2022/04/16 05:44:47;;;;;;;48.23;29.13;;;;;;;-145.18;100.00;46638.91;5030876;28;20107;-78
2022/04/16 05:47:13;;;;;;;45.50;27.00;;;;;;;-145.18;100.00;46640.88;5031219;28;20037;-78
2022/04/16 05:49:38;;;;;;;40.70;27.27;;;;;;;-145.18;100.00;46644.78;5013567;28;20108;-78
2022/04/16 05:52:05;;;;;;;52.00;29.37;;;;;;;-145.18;100.00;46640.88;5031586;28;20076;-77
2022/04/16 05:54:30;;;;;;;47.87;27.77;;;;;;;-145.18;100.00;46642.81;5013662;28;20038;-78
2022/04/16 05:56:56;;;;;;;52.40;28.20;;;;;;;-145.18;100.00;46642.81;5030856;28;20278;-78
2022/04/16 05:59:22;;;;;;;49.67;28.60;;;;;;;-145.18;100.00;46644.78;5030948;28;20029;-78
2022/04/16 06:01:48;;;;;;;47.90;27.73;;;;;;;-145.18;100.00;46636.94;5012874;28;20557;-77
2022/04/16 06:04:13;;;;;;;47.60;28.10;;;;;;;-145.18;100.00;46642.81;5030973;28;20310;-77
2022/04/16 06:06:39;;;;;;;46.20;28.60;;;;;;;-145.18;100.00;46644.78;5031130;28;20064;-78
2022/04/16 06:09:04;;;;;;;43.30;28.83;;;;;;;-145.18;100.00;46644.78;5030738;28;20034;-77
2022/04/16 06:11:32;;;;;;;46.20;30.33;;;;;;;-145.18;100.00;46642.81;5030047;28;20037;-78
2022/04/16 06:13:57;;;;;;;54.57;29.00;;;;;;;-145.18;100.00;46644.78;5030632;28;20026;-78
2022/04/16 06:16:22;;;;;;;45.27;28.10;;;;;;;-145.18;100.00;46640.88;5028036;28;21180;-78
2022/04/16 06:18:48;;;;;;;57.10;31.67;;;;;;;-145.18;100.00;46642.81;5029016;28;20040;-78
2022/04/16 06:21:13;;;;;;;49.33;29.00;;;;;;;-145.18;100.00;46638.91;5031002;28;20029;-78
2022/04/16 06:23:38;;;;;;;46.30;29.17;;;;;;;-145.18;100.00;46644.78;5030233;28;20040;-78
2022/04/16 06:26:04;;;;;;;48.47;31.23;;;;;;;-145.18;100.00;46640.88;5030417;28;20057;-78
2022/04/16 06:28:29;;;;;;;49.10;29.57;;;;;;;-145.18;100.00;46640.88;5027761;28;20042;-78
2022/04/16 06:30:55;;;;;;;44.97;29.10;;;;;;;-145.18;100.00;46648.69;5030731;28;20059;-78
2022/04/16 06:33:20;;;;;;;54.50;31.07;;;;;;;-145.18;100.00;46642.81;5030405;28;20111;-78
2022/04/16 06:35:46;;;;;;;49.50;31.00;;;;;;;-145.18;100.00;46646.72;5026210;28;20036;-78
2022/04/16 06:38:12;;;;;;;49.80;31.73;;;;;;;-145.18;100.00;46646.72;5030179;28;20068;-78
2022/04/16 06:40:37;;;;;;;46.77;29.77;;;;;;;-145.18;100.00;46650.63;5025130;28;20038;-78
2022/04/16 06:43:02;;;;;;;45.63;27.13;;;;;;;-145.18;100.00;46646.72;5010571;28;20542;-78
2022/04/16 06:45:28;;;;;;;54.50;30.17;;;;;;;-145.18;100.00;46648.69;5010561;28;20092;-78
2022/04/16 06:47:53;;;;;;;43.67;26.87;;;;;;;-145.18;100.00;46646.72;5010388;28;20030;-78
2022/04/16 06:50:19;;;;;;;44.40;28.83;;;;;;;-145.18;100.00;46650.63;5010658;28;20498;-78
2022/04/16 06:52:45;;;;;;;44.10;26.07;;;;;;;-145.18;100.00;46650.63;5010117;28;20088;-78
2022/04/16 06:55:10;;;;;;;52.67;26.80;;;;;;;-145.18;100.00;46652.59;5010929;28;20038;-78
2022/04/16 06:57:36;;;;;;;42.00;24.33;;;;;;;-145.18;100.00;46652.59;4992561;28;20284;-78
2022/04/16 07:00:03;;;;;;;42.63;27.77;;;;;;;-145.18;100.00;46654.53;5010379;28;20030;-78
2022/04/16 07:02:28;;;;;;;44.27;26.17;;;;;;;-145.18;100.00;46660.41;5008688;28;20050;-78
2022/04/16 07:04:54;;;;;;;41.57;25.93;;;;;;;-145.18;100.00;46656.50;5009841;28;20271;-78
2022/04/16 07:07:19;;;;;;;43.90;26.57;;;;;;;-145.18;100.00;46662.34;5010533;28;20065;-78
2022/04/16 07:09:44;;;;;;;43.30;25.77;;;;;;;-145.18;100.00;46660.41;4992097;28;20030;-78
2022/04/16 07:12:10;;;;;;;40.63;27.80;;;;;;;-145.18;100.00;46656.50;5020033;28;20113;-74
2022/04/16 07:14:37;;;;;;;41.00;26.77;;;;;;;-145.18;100.00;46652.59;5029285;28;20037;-78
2022/04/16 07:17:03;;;;;;;40.23;26.23;;;;;;;-145.18;100.00;46658.44;5029961;28;20255;-79
2022/04/16 07:19:29;;;;;;;45.00;26.27;;;;;;;-145.18;100.00;46654.53;5028858;28;20754;-78
2022/04/16 07:21:55;;;;;;;43.67;26.97;;;;;;;-145.18;100.00;46652.59;5029755;28;20394;-78
2022/04/16 07:24:21;;;;;;;43.27;25.37;;;;;;;-145.18;100.00;46646.72;5032394;28;20329;-78
2022/04/16 07:26:47;;;;;;;39.97;25.87;;;;;;;-145.18;100.00;46644.78;5032989;28;20767;-78
2022/04/16 07:29:13;;;;;;;39.47;25.27;;;;;;;-145.18;100.00;46642.81;5033390;28;20328;-77
2022/04/16 07:31:39;;;;;;;44.77;27.60;;;;;;;-145.18;100.00;46635.00;5033601;28;20263;-78
2022/04/16 07:34:05;;;;;;;37.63;23.33;;;;;;;-145.18;100.00;46633.06;5033219;28;20267;-77
2022/04/16 07:36:30;;;;;;;40.80;26.30;;;;;;;-145.18;100.00;46638.91;5033830;28;20040;-77
2022/04/16 07:38:55;;;;;;;38.40;23.00;;;;;;;-145.18;100.00;46635.00;5032832;28;20673;-78
2022/04/16 07:41:21;;;;;;;37.67;24.13;;;;;;;-145.18;100.00;46615.47;5032833;28;20033;-78
2022/04/16 07:43:46;;;;;;;36.90;23.80;;;;;;;-145.18;100.00;46609.59;5033348;28;20038;-77
2022/04/16 07:46:11;;;;;;;41.57;25.37;;;;;;;-145.18;100.00;46599.84;5033132;28;20393;-78
2022/04/16 07:48:37;;;;;;;40.73;23.97;;;;;;;-145.18;100.00;46572.50;5032693;28;20091;-78
2022/04/16 07:51:04;;;;;;;39.37;23.63;;;;;;;-145.18;100.00;46568.59;5032422;28;20045;-78
2022/04/16 07:53:30;;;;;;;40.63;26.00;;;;;;;-145.18;100.00;46562.72;5032708;28;20278;-78
2022/04/16 07:55:55;;;;;;;38.13;23.63;;;;;;;-145.18;100.00;46545.16;5032069;28;20294;-78
2022/04/16 07:58:21;;;;;;;38.83;24.63;;;;;;;-145.18;100.00;46549.06;5032319;28;20068;-78
2022/04/16 08:00:46;;;;;;;40.60;24.93;;;;;;;-145.18;100.00;46541.25;5018970;28;20068;-78
2022/04/16 08:03:11;;;;;;;38.83;26.10;;;;;;;-145.18;100.00;46543.19;5032354;28;20115;-78
2022/04/16 08:05:37;;;;;;;36.43;24.03;;;;;;;-145.18;100.00;46547.09;5021206;28;20034;-78
2022/04/16 08:08:04;;;;;;;36.80;25.07;;;;;;;-145.18;100.00;46541.25;5011779;28;20042;-78
2022/04/16 08:10:30;;;;;;;40.20;25.17;;;;;;;-145.18;100.00;46537.34;5012173;28;20037;-78
2022/04/16 08:12:56;;;;;;;37.00;26.17;;;;;;;-145.18;100.00;46539.28;5030345;28;20323;-78
2022/04/16 08:15:21;;;;;;;37.97;25.00;;;;;;;-145.18;100.00;46533.44;5032650;28;20290;-79
2022/04/16 08:17:46;;;;;;;38.47;25.60;;;;;;;-145.18;100.00;46533.44;5032213;28;20045;-79
2022/04/16 08:20:12;;;;;;;36.63;24.70;;;;;;;-145.18;100.00;46529.53;5032842;28;20474;-79
2022/04/16 08:22:40;;;;;;;36.40;22.30;;;;;;;-145.18;100.00;46535.38;5031881;28;20030;-79
2022/04/16 08:27:45;;;;;;;38.20;23.13;;;;;;;-145.18;100.00;46539.28;5016267;28;21070;-79
2022/04/16 08:30:12;;;;;;;34.03;23.03;;;;;;;-145.18;100.00;46543.19;5032557;28;20784;-79
2022/04/16 08:32:38;;;;;;;32.53;22.03;;;;;;;-145.18;100.00;46543.19;5031504;28;20275;-79
2022/04/16 08:35:04;;;;;;;37.80;23.50;;;;;;;-145.18;100.00;46543.19;5013730;28;20762;-79
2022/04/16 08:37:31;;;;;;;32.17;22.83;;;;;;;-145.18;100.00;46554.91;5032547;28;20030;-79
2022/04/16 08:39:56;;;;;;;38.20;23.23;;;;;;;-145.18;100.00;46547.09;5031977;28;20505;-79
2022/04/16 08:42:23;;;;;;;33.70;23.13;;;;;;;-145.18;100.00;46556.88;5032448;28;20041;-79
2022/04/16 08:44:48;;;;;;;32.93;22.90;;;;;;;-145.18;100.00;46562.72;5031707;28;20088;-79
2022/04/16 08:47:15;;;;;;;34.50;23.97;;;;;;;-145.18;100.00;46552.97;5032355;28;20371;-79
2022/04/16 08:49:42;;;;;;;32.00;23.50;;;;;;;-145.18;100.00;46554.91;5031972;28;20076;-79
2022/04/16 08:52:08;;;;;;;32.03;22.17;;;;;;;-145.18;100.00;46558.81;5032200;28;20022;-79
2022/04/16 08:54:36;;;;;;;33.37;21.73;;;;;;;-145.18;100.00;46554.91;5031663;28;20060;-79
2022/04/16 08:57:02;;;;;;;28.73;19.80;;;;;;;-145.18;100.00;46562.72;5032526;28;20033;-79
2022/04/16 08:59:27;;;;;;;31.10;21.40;;;;;;;-145.18;100.00;46564.69;5028327;28;20034;-79
2022/04/16 09:01:53;;;;;;;31.77;20.57;;;;;;;-145.18;100.00;46562.72;5024913;28;20414;-79
2022/04/16 09:04:23;;;;;;;29.30;19.07;;;;;;;-145.18;100.00;46566.63;5018888;28;20073;-79
2022/04/16 09:06:59;;;;;;;28.00;19.40;;;;;;;-145.18;100.00;46566.63;5018844;28;20050;-79
2022/04/16 09:09:25;;;;;;;27.00;18.50;;;;;;;-145.18;100.00;46578.34;5017696;28;20173;-78
2022/04/16 09:11:50;;;;;;;27.77;18.43;;;;;;;-145.18;100.00;46574.44;5018510;28;20577;-79
2022/04/16 09:14:15;;;;;;;27.23;19.33;;;;;;;-145.18;100.00;46578.34;5012924;28;20069;-79
2022/04/16 09:16:41;;;;;;;27.07;17.90;;;;;;;-145.18;100.00;46578.34;5020890;28;20033;-79
2022/04/16 09:19:12;;;;;;;26.20;18.10;;;;;;;-145.18;100.00;46582.25;5031414;28;20037;-79
2022/04/16 09:21:37;;;;;;;24.90;16.87;;;;;;;-145.18;100.00;46592.03;5023937;28;20030;-78
2022/04/16 09:24:03;;;;;;;24.73;17.23;;;;;;;-145.18;100.00;46611.56;5031021;28;20040;-79
2022/04/16 09:26:37;;;;;;;26.70;17.93;;;;;;;-145.18;100.00;46595.94;5025105;28;20037;-79
2022/04/16 09:29:07;;;;;;;27.60;17.10;;;;;;;-145.18;100.00;46636.94;5028315;28;20502;-79
2022/04/16 09:31:34;;;;;;;23.47;16.73;;;;;;;-145.18;100.00;46633.06;5011705;28;20030;-79
2022/04/16 09:34:00;;;;;;;26.40;16.80;;;;;;;-145.18;100.00;46623.28;5029719;28;20478;-79
2022/04/16 09:36:27;;;;;;;24.87;17.40;;;;;;;-145.18;100.00;46586.16;5031255;28;20075;-79
2022/04/16 09:39:07;;;;;;;23.87;17.40;;;;;;;-145.18;100.00;46595.94;5030319;28;20025;-79
2022/04/16 09:41:34;;;;;;;26.17;18.43;;;;;;;-145.18;100.00;46615.47;5031317;28;20056;-79
2022/04/16 09:44:00;;;;;;;23.63;15.70;;;;;;;-145.18;100.00;46631.09;5024405;28;20133;-79
2022/04/16 09:46:30;;;;;;;21.87;15.73;;;;;;;-145.18;100.00;46625.22;5012836;28;20528;-79
2022/04/16 09:49:04;;;;;;;23.07;15.43;;;;;;;-145.18;100.00;46615.47;5012318;28;20030;-79
2022/04/16 09:51:35;;;;;;;23.10;15.00;;;;;;;-145.18;100.00;46640.88;5018469;28;20462;-79
2022/04/16 09:54:06;;;;;;;22.27;15.40;;;;;;;-145.18;100.00;46633.06;5028437;28;20060;-78
2022/04/16 09:56:34;;;;;;;21.57;14.57;;;;;;;-145.18;100.00;46648.69;5028975;28;20128;-79
2022/04/16 09:59:03;;;;;;;18.27;13.17;;;;;;;-145.18;100.00;46719.00;5030157;28;20431;-79
2022/04/16 10:01:29;;;;;;;20.83;14.40;;;;;;;-145.18;100.00;46795.19;5029969;28;20026;-79
2022/04/16 10:03:56;;;;;;;18.97;13.40;;;;;;;-145.18;100.00;46709.22;5029132;28;20049;-76
2022/04/16 10:06:21;;;;;;;18.73;13.17;;;;;;;-145.18;100.00;46812.75;5030284;28;20029;-77
2022/04/16 10:08:51;;;;;;;21.13;13.93;;;;;;;-145.18;100.00;46812.75;5028698;28;20036;-76
2022/04/16 10:11:32;;;;;;;18.07;12.73;;;;;;;-145.18;100.00;47111.66;5026931;28;20057;-76
2022/04/16 10:14:04;;;;;;;30.67;15.20;;;;;;;-145.18;100.00;47256.22;5030290;28;20420;-77
2022/04/16 10:16:40;;;;;;;21.60;13.03;;;;;;;-145.18;100.00;46744.38;5026859;28;20033;-77
2022/04/16 10:19:15;;;;;;;18.93;12.27;;;;;;;-145.18;100.00;47248.41;5028877;28;20029;-78
2022/04/16 10:21:41;;;;;;;16.15;12.25;;;;;;;-145.18;100.00;47226.91;5029671;28;20079;-78
2022/04/16 10:24:07;;;;;;;22.00;13.70;;;;;;;-145.18;100.00;47279.66;5027512;28;20044;-77
2022/04/16 10:26:39;;;;;;;21.10;13.20;;;;;;;-145.18;100.00;47264.03;5028741;28;20037;-77
2022/04/16 10:29:05;;;;;;;20.00;13.30;;;;;;;-145.18;100.00;47279.66;5027257;28;20050;-77
2022/04/16 10:31:37;;;;;;;19.20;13.70;;;;;;;-145.18;100.00;47289.41;5029753;28;20039;-77
2022/04/16 10:34:05;;;;;;;16.10;12.63;;;;;;;-145.18;100.00;47223.00;5029897;28;20100;-77
2022/04/16 10:36:36;;;;;;;17.30;12.43;;;;;;;-145.18;100.00;47379.28;5029903;28;20036;-77
2022/04/16 10:39:15;;;;;;;16.80;12.40;;;;;;;-145.18;100.00;47291.38;5029299;28;20025;-77
2022/04/16 10:42:01;;;;;;;15.77;12.67;;;;;;;-145.18;100.00;47271.84;5030190;28;20030;-77
2022/04/16 10:44:28;;;;;;;13.73;11.60;;;;;;;-145.18;100.00;47291.38;5030204;28;20029;-77
2022/04/16 10:46:54;;;;;;;14.80;10.83;;;;;;;-145.18;100.00;47260.13;5029969;28;20033;-77
2022/04/16 10:49:23;;;;;;;14.37;10.40;;;;;;;-145.18;100.00;47275.75;5029653;28;20036;-77
2022/04/16 10:51:50;;;;;;;13.13;10.50;;;;;;;-145.18;100.00;47234.72;5030324;28;20037;-77
2022/04/16 10:54:32;;;;;;;13.47;9.23;;;;;;;-145.18;100.00;47254.25;5029986;28;20041;-77
2022/04/16 10:56:58;;;;;;;11.07;8.40;;;;;;;-145.18;100.00;47213.22;5029518;28;20436;-77
2022/04/16 10:59:38;;;;;;;9.23;7.50;;;;;;;-145.18;100.00;47199.56;5029581;28;20040;-77
2022/04/16 11:02:19;;;;;;;9.40;6.60;;;;;;;-145.18;100.00;47178.06;5030228;28;20048;-77
2022/04/16 11:05:02;;;;;;;7.13;5.73;;;;;;;-145.18;100.00;47158.53;5029506;28;20036;-77
2022/04/16 11:07:29;;;;;;;10.57;7.23;;;;;;;-145.18;100.00;47156.56;5029937;28;20160;-76
2022/04/16 11:09:55;;;;;;;10.83;7.37;;;;;;;-145.18;100.00;47178.06;5029800;28;20048;-77